Time;durP1;ratioP1;P1;durP2;ratioP2;P2;SDS_P1;SDS_P2;PMS_P1;PMS_P2;Temp;Humidity;BMP_temperature;BMP_pressure;BME280_temperature;BME280_humidity;BME280_pressure;Samples;Min_cycle;Max_cycle;Signal;HPM_P1;HPM_P2
2022/10/03 00:17:25;;;;;;;5.78;1.48;;;;;;;;;;5013769;28;20056;-63
2022/10/03 00:32:08;;;;;;;4.07;1.50;;;;;;;;;;5022746;28;20097;-64
2022/10/03 00:37:41;;;;;;;2.97;1.20;;;;;;;;;;5022005;28;20053;-62
2022/10/03 00:56:11;;;;;;;4.38;1.20;;;;;;;;;;5044460;28;20072;-60
2022/10/03 01:17:23;;;;;;;4.90;1.33;;;;;;;;;;4932105;29;20066;-62
2022/10/03 01:35:11;;;;;;;2.78;1.20;;;;;;;;;;4926400;28;20114;-64
2022/10/03 01:41:19;;;;;;;3.47;1.38;;;;;;;;;;5011727;28;20148;-62
2022/10/03 01:59:06;;;;;;;2.63;1.08;;;;;;;;;;5006305;28;20049;-63
2022/10/03 02:05:11;;;;;;;3.85;1.30;;;;;;;;;;5043545;28;20057;-63
2022/10/03 02:10:43;;;;;;;2.00;1.00;;;;;;;;;;5006963;28;20053;-63
2022/10/03 02:16:18;;;;;;;7.70;1.33;;;;;;;;;;5001007;28;20050;-64
2022/10/03 02:37:33;;;;;;;2.88;1.15;;;;;;;;;;4985907;28;20190;-64
2022/10/03 03:19:52;;;;;;;5.22;1.30;;;;;;;;;;5027606;28;20057;-63
2022/10/03 03:31:31;;;;;;;2.60;0.98;;;;;;;;;;4968768;28;20062;-63
2022/10/03 03:37:05;;;;;;;5.55;1.25;;;;;;;;;;4972826;28;20077;-63
2022/10/03 03:48:52;;;;;;;3.50;1.05;;;;;;;;;;4968749;28;20054;-63
2022/10/03 03:54:56;;;;;;;5.47;1.10;;;;;;;;;;4968679;28;20050;-63
2022/10/03 04:06:40;;;;;;;3.67;1.20;;;;;;;;;;5021443;28;20045;-63
2022/10/03 04:27:23;;;;;;;3.38;1.30;;;;;;;;;;5030220;28;20068;-64
2022/10/03 04:45:10;;;;;;;2.45;1.23;;;;;;;;;;5040267;28;20140;-62
2022/10/03 05:04:09;;;;;;;3.65;1.48;;;;;;;;;;5033964;28;20045;-58
2022/10/03 05:16:42;;;;;;;3.97;0.98;;;;;;;;;;5040854;28;20087;-64
2022/10/03 05:22:34;;;;;;;4.25;1.33;;;;;;;;;;5027525;28;20050;-64
2022/10/03 05:34:13;;;;;;;3.28;1.38;;;;;;;;;;5000973;28;20142;-61
2022/10/03 05:39:45;;;;;;;3.08;1.20;;;;;;;;;;5029241;28;20124;-65
2022/10/03 05:57:35;;;;;;;4.80;1.40;;;;;;;;;;5006701;28;20056;-65
2022/10/03 06:20:36;;;;;;;1.83;1.02;;;;;;;;;;5006560;28;20131;-66
2022/10/03 06:45:51;;;;;;;3.47;1.38;;;;;;;;;;5026910;28;20056;-61
2022/10/03 06:55:03;;;;;;;5.72;2.10;;;;;;;;;;5022888;28;20052;-60
2022/10/03 07:06:50;;;;;;;3.65;1.58;;;;;;;;;;5042148;28;20045;-63
2022/10/03 07:38:59;;;;;;;6.70;1.73;;;;;;;;;;4966993;28;20061;-64
2022/10/03 07:44:46;;;;;;;3.85;1.42;;;;;;;;;;5011085;28;20049;-63
2022/10/03 07:56:32;;;;;;;9.93;2.13;;;;;;;;;;4947480;28;20100;-61
2022/10/03 08:02:12;;;;;;;7.45;1.50;;;;;;;;;;4933751;29;20212;-63
2022/10/03 08:07:53;;;;;;;8.48;2.00;;;;;;;;;;4933556;29;20061;-62
2022/10/03 08:16:32;;;;;;;5.25;1.60;;;;;;;;;;4946960;28;20078;-59
2022/10/03 08:29:27;;;;;;;6.15;2.00;;;;;;;;;;5008747;28;20057;-62
2022/10/03 08:35:12;;;;;;;7.28;1.77;;;;;;;;;;5008563;28;20057;-59
2022/10/03 08:47:05;;;;;;;8.20;1.90;;;;;;;;;;5003943;28;20052;-64
2022/10/03 08:52:42;;;;;;;7.18;1.38;;;;;;;;;;4946306;28;20070;-62
2022/10/03 09:04:43;;;;;;;9.50;1.85;;;;;;;;;;5005552;28;20053;-62
2022/10/03 09:10:33;;;;;;;4.82;1.75;;;;;;;;;;5045734;28;20045;-59
2022/10/03 09:19:14;;;;;;;8.32;2.03;;;;;;;;;;5020961;28;20053;-63
2022/10/03 09:25:04;;;;;;;7.03;1.67;;;;;;;;;;5020263;28;20049;-61
2022/10/03 09:30:47;;;;;;;9.45;2.30;;;;;;;;;;5006896;28;20057;-63
2022/10/03 09:39:34;;;;;;;5.55;2.20;;;;;;;;;;5016211;28;20042;-63
2022/10/03 09:45:14;;;;;;;6.72;1.88;;;;;;;;;;5031073;28;20125;-59
2022/10/03 09:57:23;;;;;;;6.10;1.38;;;;;;;;;;5023254;28;20054;-63
2022/10/03 10:03:11;;;;;;;6.95;1.50;;;;;;;;;;4969470;28;20054;-62
2022/10/03 10:15:00;;;;;;;7.05;2.00;;;;;;;;;;4963196;28;20050;-64
2022/10/03 10:21:00;;;;;;;14.50;1.83;;;;;;;;;;4982652;28;20046;-61
2022/10/03 10:49:11;;;;;;;8.75;1.83;;;;;;;;;;4816239;29;20153;-64
2022/10/03 10:55:02;;;;;;;13.00;1.80;;;;;;;;;;4855430;29;20049;-67
2022/10/03 11:22:12;;;;;;;9.48;1.00;;;;;;;;;;5010154;28;20073;-61
2022/10/03 11:28:00;;;;;;;3.10;0.82;;;;;;;;;;5039480;28;20052;-60
2022/10/03 11:45:46;;;;;;;9.30;1.05;;;;;;;;;;5009008;28;20081;-59
2022/10/03 11:51:37;;;;;;;8.43;0.90;;;;;;;;;;5009209;28;20068;-62
2022/10/03 12:00:14;;;;;;;1.77;0.80;;;;;;;;;;5024570;28;20115;-62
2022/10/03 12:08:53;;;;;;;7.95;1.58;;;;;;;;;;5007470;28;20348;-62
2022/10/03 12:11:49;;;;;;;2.85;0.70;;;;;;;;;;5008659;28;20050;-61
2022/10/03 12:17:23;;;;;;;8.60;0.80;;;;;;;;;;5008668;28;20088;-59
2022/10/03 12:25:57;;;;;;;8.23;1.15;;;;;;;;;;5029583;28;20060;-59
2022/10/03 12:41:17;;;;;;;6.75;1.00;;;;;;;;;;5030812;28;20072;-60
2022/10/03 12:56:42;;;;;;;5.68;1.17;;;;;;;;;;5005152;28;20103;-58
2022/10/03 13:02:21;;;;;;;6.45;1.30;;;;;;;;;;5005488;28;20042;-59
2022/10/03 13:08:18;;;;;;;3.88;0.90;;;;;;;;;;5010945;28;20049;-61
2022/10/03 13:17:13;;;;;;;3.22;0.80;;;;;;;;;;5003437;28;20049;-61
2022/10/03 13:26:00;;;;;;;7.10;0.88;;;;;;;;;;5025559;28;20067;-64
2022/10/03 13:31:32;;;;;;;6.75;1.00;;;;;;;;;;5027424;28;20056;-59
2022/10/03 13:37:08;;;;;;;5.35;1.23;;;;;;;;;;5027246;28;20130;-61
2022/10/03 14:06:15;;;;;;;3.83;0.85;;;;;;;;;;5027772;28;20068;-58
2022/10/03 14:11:49;;;;;;;6.20;1.00;;;;;;;;;;5025365;28;20048;-60
2022/10/03 14:20:25;;;;;;;8.38;1.38;;;;;;;;;;5004628;28;20143;-61
2022/10/03 14:26:00;;;;;;;4.97;1.10;;;;;;;;;;4996425;28;20132;-64
2022/10/03 14:37:40;;;;;;;2.95;1.20;;;;;;;;;;5026767;28;20053;-63
2022/10/03 14:46:28;;;;;;;3.05;0.85;;;;;;;;;;5012352;28;20049;-64
2022/10/03 15:12:38;;;;;;;5.32;0.95;;;;;;;;;;5011794;28;20076;-64
2022/10/03 15:21:14;;;;;;;8.63;1.55;;;;;;;;;;5007433;28;20049;-62
2022/10/03 15:35:58;;;;;;;4.25;1.08;;;;;;;;;;5007842;28;20141;-62
2022/10/03 15:41:28;;;;;;;3.13;0.85;;;;;;;;;;5009402;28;20058;-63
2022/10/03 15:47:00;;;;;;;6.10;0.90;;;;;;;;;;5009807;28;20053;-62
2022/10/03 15:55:38;;;;;;;4.88;1.10;;;;;;;;;;5007650;28;20129;-62
2022/10/03 16:18:42;;;;;;;4.47;0.95;;;;;;;;;;5026369;28;20113;-63
2022/10/03 16:30:20;;;;;;;1.70;0.60;;;;;;;;;;4942188;28;20062;-60
2022/10/03 16:41:55;;;;;;;3.55;1.10;;;;;;;;;;4927897;28;20105;-59
2022/10/03 16:47:31;;;;;;;3.08;1.00;;;;;;;;;;4929987;29;20138;-65
2022/10/03 17:05:42;;;;;;;1.50;0.80;;;;;;;;;;5023381;28;20049;-65
2022/10/03 17:28:35;;;;;;;2.10;0.75;;;;;;;;;;4986186;28;20100;-62
2022/10/03 17:37:17;;;;;;;4.68;1.17;;;;;;;;;;4990500;28;20143;-65
2022/10/03 17:51:57;;;;;;;4.80;1.27;;;;;;;;;;5002362;28;20107;-65
2022/10/03 17:57:42;;;;;;;7.72;1.35;;;;;;;;;;4993939;28;20049;-63
2022/10/03 18:09:25;;;;;;;2.85;1.42;;;;;;;;;;4990179;28;20055;-60
2022/10/03 18:37:30;;;;;;;4.68;1.25;;;;;;;;;;4972489;28;20050;-58
2022/10/03 18:46:15;;;;;;;3.40;1.40;;;;;;;;;;4978987;28;20073;-59
2022/10/03 19:07:19;;;;;;;2.78;1.50;;;;;;;;;;5019648;28;20148;-63
2022/10/03 19:28:18;;;;;;;6.10;1.80;;;;;;;;;;4998519;28;20061;-63
2022/10/03 19:36:57;;;;;;;5.40;1.88;;;;;;;;;;5006901;28;20110;-63
2022/10/03 19:48:48;;;;;;;4.72;1.83;;;;;;;;;;4998628;28;20054;-61
2022/10/03 19:55:14;;;;;;;5.07;2.05;;;;;;;;;;5011946;28;20053;-66
2022/10/03 20:01:24;;;;;;;6.18;2.00;;;;;;;;;;5034185;28;20131;-65
2022/10/03 20:07:02;;;;;;;5.88;1.80;;;;;;;;;;5009189;28;20054;-64
2022/10/03 20:15:40;;;;;;;7.15;2.15;;;;;;;;;;4983565;28;20056;-60
2022/10/03 20:34:58;;;;;;;6.25;2.33;;;;;;;;;;4996375;28;20069;-63
2022/10/03 20:40:36;;;;;;;6.32;2.05;;;;;;;;;;5004862;28;20037;-65
2022/10/03 20:49:26;;;;;;;6.25;1.98;;;;;;;;;;5013651;28;20056;-64
2022/10/03 21:01:07;;;;;;;5.53;2.03;;;;;;;;;;5000964;28;20088;-67
2022/10/03 21:06:46;;;;;;;5.07;2.05;;;;;;;;;;4994988;28;20057;-66
2022/10/03 21:27:33;;;;;;;5.53;2.28;;;;;;;;;;5016501;28;20061;-66
2022/10/03 21:43:43;;;;;;;5.63;2.08;;;;;;;;;;5007413;28;20052;-65
2022/10/03 21:49:27;;;;;;;9.40;2.22;;;;;;;;;;5026233;28;20056;-66
2022/10/03 21:58:07;;;;;;;5.22;2.10;;;;;;;;;;5005110;28;20049;-61
2022/10/03 22:06:44;;;;;;;7.47;2.47;;;;;;;;;;5025008;28;20104;-65
2022/10/03 22:18:21;;;;;;;6.38;2.22;;;;;;;;;;5020712;28;20054;-62
2022/10/03 22:36:23;;;;;;;5.50;1.90;;;;;;;;;;4984763;28;20066;-62
2022/10/03 22:41:54;;;;;;;5.00;1.85;;;;;;;;;;4989521;28;20058;-58
2022/10/03 22:50:30;;;;;;;5.10;2.00;;;;;;;;;;5000914;28;20061;-64
2022/10/03 22:59:05;;;;;;;4.30;1.80;;;;;;;;;;5005813;28;20084;-60
2022/10/03 23:08:03;;;;;;;5.05;1.75;;;;;;;;;;4987437;28;20058;-63
2022/10/03 23:17:12;;;;;;;4.55;1.73;;;;;;;;;;4999845;28;20054;-61
2022/10/03 23:28:53;;;;;;;6.80;2.88;;;;;;;;;;5005324;28;20054;-60
2022/10/03 23:47:02;;;;;;;5.63;1.98;;;;;;;;;;5002198;28;20069;-63
2022/10/03 23:52:37;;;;;;;6.75;2.20;;;;;;;;;;5004202;28;20115;-59
